Time;durP1;ratioP1;P1;durP2;ratioP2;P2;SDS_P1;SDS_P2;PMS_P1;PMS_P2;Temp;Humidity;BMP_temperature;BMP_pressure;BME280_temperature;BME280_humidity;BME280_pressure;Samples;Min_cycle;Max_cycle;Signal;HPM_P1;HPM_P2
2021/10/19 00:01:14;;;;;;;11.55;9.15;;;13.90;97.40;;;;;;4999039;28;20034;-63
2021/10/19 00:03:40;;;;;;;13.23;10.40;;;13.90;97.60;;;;;;4995068;28;20076;-63
2021/10/19 00:06:05;;;;;;;13.85;9.80;;;13.90;97.70;;;;;;4994700;28;20026;-63
2021/10/19 00:08:31;;;;;;;16.50;9.73;;;13.90;97.90;;;;;;4993514;28;20045;-63
2021/10/19 00:10:56;;;;;;;12.38;9.40;;;13.90;98.00;;;;;;4997046;28;20459;-63
2021/10/19 00:13:22;;;;;;;11.75;9.20;;;13.80;98.20;;;;;;4994881;28;20475;-63
2021/10/19 00:15:47;;;;;;;10.75;8.77;;;13.80;98.30;;;;;;4994854;28;20029;-63
2021/10/19 00:18:13;;;;;;;13.48;8.57;;;13.80;98.30;;;;;;4993993;28;20463;-63
2021/10/19 00:20:38;;;;;;;10.35;8.85;;;13.80;98.40;;;;;;5001054;28;20026;-63
2021/10/19 00:23:04;;;;;;;11.48;9.60;;;13.80;98.40;;;;;;4995862;28;20398;-63
2021/10/19 00:25:29;;;;;;;11.63;9.55;;;13.80;98.40;;;;;;5002247;28;20497;-63
2021/10/19 00:27:55;;;;;;;12.23;9.25;;;13.80;98.40;;;;;;4994804;28;20030;-62
2021/10/19 00:30:21;;;;;;;10.80;8.80;;;13.80;98.50;;;;;;4996330;28;20030;-63
2021/10/19 00:32:46;;;;;;;11.52;8.73;;;13.80;98.60;;;;;;4997119;28;20457;-62
2021/10/19 00:35:12;;;;;;;10.35;8.88;;;13.80;98.70;;;;;;4996334;28;20014;-62
2021/10/19 00:37:37;;;;;;;10.02;8.80;;;13.70;98.70;;;;;;4998348;28;20022;-63
2021/10/19 00:40:04;;;;;;;9.73;8.73;;;13.70;98.80;;;;;;4998268;28;20025;-62
2021/10/19 00:42:33;;;;;;;10.68;9.30;;;13.70;98.80;;;;;;5001835;28;20034;-62
2021/10/19 00:44:58;;;;;;;10.65;9.50;;;13.70;98.90;;;;;;4997344;28;20026;-62
2021/10/19 00:47:24;;;;;;;11.68;9.13;;;13.70;99.00;;;;;;4997064;28;20029;-62
2021/10/19 00:49:50;;;;;;;13.45;9.52;;;13.70;99.00;;;;;;4996958;28;20489;-63
2021/10/19 00:52:17;;;;;;;11.57;9.00;;;13.70;99.00;;;;;;4995741;28;20018;-63
2021/10/19 00:54:43;;;;;;;10.20;8.45;;;13.70;99.10;;;;;;4998856;28;20022;-62
2021/10/19 00:57:09;;;;;;;9.75;8.73;;;13.70;99.10;;;;;;4998761;28;20022;-63
2021/10/19 00:59:36;;;;;;;10.50;8.40;;;13.70;99.00;;;;;;4996414;28;20553;-62
2021/10/19 01:02:03;;;;;;;10.23;8.45;;;13.70;99.10;;;;;;4993665;28;20034;-63
2021/10/19 01:04:29;;;;;;;11.15;9.25;;;13.70;99.10;;;;;;4994254;28;20076;-63
2021/10/19 01:06:55;;;;;;;9.98;8.27;;;13.70;99.20;;;;;;4994481;28;20034;-63
2021/10/19 01:09:21;;;;;;;10.95;9.05;;;13.70;99.20;;;;;;4999118;28;20025;-62
2021/10/19 01:11:46;;;;;;;11.65;8.82;;;13.70;99.20;;;;;;4998855;28;20423;-62
2021/10/19 01:14:12;;;;;;;11.50;9.23;;;13.70;99.30;;;;;;4996735;28;20030;-63
2021/10/19 01:16:37;;;;;;;11.10;9.30;;;13.70;99.30;;;;;;4988510;28;20080;-63
2021/10/19 01:19:03;;;;;;;10.70;8.68;;;13.70;99.40;;;;;;4998864;28;20037;-62
2021/10/19 01:21:28;;;;;;;11.63;9.88;;;13.70;99.40;;;;;;5010786;28;20018;-62
2021/10/19 01:23:54;;;;;;;12.98;9.52;;;13.70;99.80;;;;;;5001848;28;20512;-62
2021/10/19 01:26:19;;;;;;;11.07;9.57;;;13.70;99.60;;;;;;4994309;28;20033;-62
2021/10/19 01:28:45;;;;;;;11.40;10.15;;;13.70;99.70;;;;;;4994080;28;20025;-63
2021/10/19 01:31:12;;;;;;;12.50;9.68;;;13.70;99.90;;;;;;4993924;28;20391;-62
2021/10/19 01:33:39;;;;;;;12.90;10.65;;;13.70;99.90;;;;;;4992947;28;20014;-62
2021/10/19 01:36:06;;;;;;;10.80;9.38;;;13.70;99.90;;;;;;4991322;28;20037;-62
2021/10/19 01:38:34;;;;;;;13.88;10.20;;;13.70;99.90;;;;;;5000520;28;20431;-62
2021/10/19 01:41:00;;;;;;;12.48;10.30;;;13.80;99.90;;;;;;4999195;28;20152;-63
2021/10/19 01:43:27;;;;;;;11.00;9.80;;;13.80;99.90;;;;;;4993586;28;20031;-63
2021/10/19 01:45:56;;;;;;;12.52;10.75;;;13.80;99.90;;;;;;4998803;28;20111;-63
2021/10/19 01:48:21;;;;;;;11.48;9.93;;;13.80;99.90;;;;;;4998923;28;20390;-62
2021/10/19 01:50:47;;;;;;;13.55;10.93;;;13.90;99.90;;;;;;4994762;28;20014;-63
2021/10/19 01:53:14;;;;;;;13.35;9.55;;;13.90;99.90;;;;;;4998705;28;20026;-62
2021/10/19 01:55:41;;;;;;;11.90;9.45;;;13.90;99.90;;;;;;4996345;28;20386;-63
2021/10/19 01:58:08;;;;;;;12.60;10.32;;;13.90;99.90;;;;;;4997216;28;20028;-62
2021/10/19 02:00:34;;;;;;;12.15;9.95;;;14.00;99.90;;;;;;4996278;28;20500;-62
2021/10/19 02:03:06;;;;;;;12.27;9.32;;;14.00;99.90;;;;;;4994000;28;20065;-62
2021/10/19 02:05:31;;;;;;;11.68;9.52;;;14.00;99.90;;;;;;4995283;28;20117;-62
2021/10/19 02:07:58;;;;;;;11.35;8.95;;;14.00;99.90;;;;;;4997701;28;20545;-63
2021/10/19 02:10:24;;;;;;;12.45;9.73;;;14.00;99.90;;;;;;4995072;28;20022;-63
2021/10/19 02:12:49;;;;;;;13.10;9.68;;;14.00;99.90;;;;;;4995620;28;20018;-62
2021/10/19 02:15:15;;;;;;;13.20;9.40;;;14.00;99.90;;;;;;4992201;28;20045;-62
2021/10/19 02:17:40;;;;;;;11.50;9.30;;;14.10;99.90;;;;;;4994435;28;20069;-62
2021/10/19 02:20:07;;;;;;;10.18;8.98;;;14.10;99.90;;;;;;4991836;28;20069;-62
2021/10/19 02:22:33;;;;;;;13.15;9.48;;;14.10;99.90;;;;;;4999030;28;20105;-62
2021/10/19 02:24:59;;;;;;;11.05;9.02;;;14.10;99.90;;;;;;4993698;28;20102;-62
2021/10/19 02:27:26;;;;;;;11.73;9.80;;;14.10;99.90;;;;;;4997449;28;20556;-62
2021/10/19 02:30:39;;;;;;;16.50;9.13;;;14.10;99.90;;;;;;4995815;28;20030;-63
2021/10/19 02:33:05;;;;;;;10.88;9.25;;;14.20;99.90;;;;;;4974527;28;20042;-62
2021/10/19 02:35:30;;;;;;;14.05;10.23;;;14.20;99.90;;;;;;4994860;28;20037;-62
2021/10/19 02:37:57;;;;;;;11.98;10.05;;;14.20;99.90;;;;;;4993921;28;20029;-63
2021/10/19 02:40:24;;;;;;;11.57;9.80;;;14.20;99.90;;;;;;4998210;28;20033;-63
2021/10/19 02:42:49;;;;;;;12.15;9.88;;;14.30;99.90;;;;;;5012483;28;20021;-63
2021/10/19 02:45:15;;;;;;;10.32;8.73;;;14.30;99.90;;;;;;4996739;28;20109;-62
2021/10/19 02:47:41;;;;;;;11.30;9.38;;;14.30;99.90;;;;;;4996096;28;20163;-62
2021/10/19 02:50:09;;;;;;;12.88;9.68;;;14.30;99.90;;;;;;4992198;28;20014;-62
2021/10/19 02:52:35;;;;;;;11.13;9.57;;;14.30;99.90;;;;;;4997909;28;20026;-62
2021/10/19 02:55:00;;;;;;;12.10;9.90;;;14.30;99.90;;;;;;4994010;28;20019;-63
2021/10/19 02:57:26;;;;;;;13.40;10.63;;;14.30;99.90;;;;;;4996500;28;20091;-62
2021/10/19 02:59:51;;;;;;;13.43;10.45;;;14.30;99.90;;;;;;4994989;28;20026;-63
2021/10/19 03:02:17;;;;;;;11.82;10.57;;;14.30;99.90;;;;;;4989819;28;20633;-62
2021/10/19 03:04:42;;;;;;;12.30;9.95;;;14.30;99.90;;;;;;4997275;28;20137;-63
2021/10/19 03:07:08;;;;;;;12.35;10.27;;;14.30;99.90;;;;;;4996847;28;20072;-62
2021/10/19 03:09:34;;;;;;;12.23;10.77;;;14.30;99.90;;;;;;4999060;28;20108;-62
2021/10/19 03:11:59;;;;;;;13.88;10.57;;;14.30;99.90;;;;;;4996463;28;20030;-62
2021/10/19 03:14:24;;;;;;;12.10;10.80;;;14.30;99.90;;;;;;5000257;28;20088;-62
2021/10/19 03:16:50;;;;;;;12.35;10.93;;;14.30;99.90;;;;;;4995182;28;20046;-62
2021/10/19 03:19:16;;;;;;;15.13;11.30;;;14.30;99.90;;;;;;4992611;28;20049;-62
2021/10/19 03:21:41;;;;;;;13.45;10.32;;;14.30;99.90;;;;;;4994211;28;20455;-62
2021/10/19 03:24:07;;;;;;;11.98;10.18;;;14.30;99.90;;;;;;5000014;28;20092;-62
2021/10/19 03:26:33;;;;;;;14.07;11.43;;;14.30;99.90;;;;;;4998596;28;20121;-62
2021/10/19 03:28:58;;;;;;;12.35;10.77;;;14.20;99.90;;;;;;4997576;28;20446;-62
2021/10/19 03:31:24;;;;;;;15.23;11.27;;;14.20;99.90;;;;;;4991948;28;20395;-62
2021/10/19 03:33:49;;;;;;;13.48;11.43;;;14.20;99.90;;;;;;5000362;28;20045;-62
2021/10/19 03:36:16;;;;;;;12.30;10.18;;;14.20;99.90;;;;;;4995046;28;20058;-62
2021/10/19 03:38:41;;;;;;;12.15;10.88;;;14.30;99.90;;;;;;4999898;28;20022;-62
2021/10/19 03:41:07;;;;;;;12.20;10.63;;;14.30;99.90;;;;;;5003443;28;20033;-62
2021/10/19 03:43:33;;;;;;;12.98;11.57;;;14.30;99.90;;;;;;5005059;28;20054;-62
2021/10/19 03:45:59;;;;;;;14.48;12.45;;;14.30;99.90;;;;;;4999913;28;20025;-62
2021/10/19 03:48:24;;;;;;;14.90;11.52;;;14.20;99.90;;;;;;4997178;28;20022;-62
2021/10/19 03:50:50;;;;;;;12.77;11.18;;;14.30;99.90;;;;;;4995792;28;20081;-62
2021/10/19 03:53:15;;;;;;;12.55;10.88;;;14.30;99.90;;;;;;4998410;28;20026;-62
2021/10/19 03:55:43;;;;;;;18.27;11.93;;;14.30;99.90;;;;;;4999650;28;20098;-62
2021/10/19 03:58:10;;;;;;;11.85;10.48;;;14.30;99.90;;;;;;4998611;28;20014;-62
2021/10/19 04:00:35;;;;;;;13.50;11.45;;;14.30;99.90;;;;;;4995898;28;20497;-62
2021/10/19 04:03:01;;;;;;;12.80;11.45;;;14.30;99.90;;;;;;4997870;28;20092;-62
2021/10/19 04:05:26;;;;;;;13.43;10.77;;;14.30;99.90;;;;;;5000843;28;20479;-62
2021/10/19 04:07:52;;;;;;;12.27;10.48;;;14.30;99.90;;;;;;5001928;28;20026;-62
2021/10/19 04:10:19;;;;;;;12.55;11.25;;;14.30;99.90;;;;;;4999847;28;20105;-62
2021/10/19 04:12:44;;;;;;;13.77;11.15;;;14.30;99.90;;;;;;4996778;28;20022;-62
2021/10/19 04:15:10;;;;;;;12.68;10.93;;;14.30;99.90;;;;;;4996171;28;20021;-62
2021/10/19 04:17:35;;;;;;;12.68;10.88;;;14.30;99.90;;;;;;4996820;28;20033;-62
2021/10/19 04:20:01;;;;;;;13.18;9.73;;;14.30;99.90;;;;;;4994006;28;20026;-62
2021/10/19 04:22:27;;;;;;;11.57;10.07;;;14.30;99.90;;;;;;4999299;28;20084;-62
2021/10/19 04:24:54;;;;;;;11.77;10.25;;;14.30;99.90;;;;;;4998586;28;20030;-62
2021/10/19 04:27:20;;;;;;;11.85;10.65;;;14.30;99.90;;;;;;4997917;28;20049;-62
2021/10/19 04:29:46;;;;;;;11.38;10.07;;;14.30;99.90;;;;;;4995184;28;20054;-62
2021/10/19 04:32:11;;;;;;;13.43;10.40;;;14.30;99.90;;;;;;4997893;28;20054;-62
2021/10/19 04:34:37;;;;;;;12.23;10.27;;;14.40;99.90;;;;;;4996604;28;20029;-62
2021/10/19 04:37:03;;;;;;;12.32;10.43;;;14.30;99.90;;;;;;4991579;28;20462;-62
2021/10/19 04:39:29;;;;;;;12.23;10.93;;;14.40;99.90;;;;;;5003108;28;20076;-62
2021/10/19 04:41:55;;;;;;;11.90;10.50;;;14.30;99.90;;;;;;4995925;28;20030;-62
2021/10/19 04:44:20;;;;;;;12.00;10.70;;;14.30;99.90;;;;;;4996722;28;20026;-62
2021/10/19 04:46:46;;;;;;;12.85;10.38;;;14.30;99.90;;;;;;4994653;28;20114;-62
2021/10/19 04:49:12;;;;;;;12.43;10.38;;;14.30;99.90;;;;;;4996859;28;20105;-62
2021/10/19 04:51:37;;;;;;;11.75;10.55;;;14.30;99.90;;;;;;4993410;28;20415;-62
2021/10/19 04:54:03;;;;;;;13.38;11.55;;;14.30;99.90;;;;;;4998643;28;20065;-62
2021/10/19 04:56:29;;;;;;;12.07;10.70;;;14.30;99.90;;;;;;5002723;28;20038;-62
2021/10/19 04:58:54;;;;;;;11.95;9.90;;;14.30;99.90;;;;;;4991200;28;20105;-62
2021/10/19 05:01:20;;;;;;;12.10;10.80;;;14.30;99.90;;;;;;4996255;28;20575;-62
2021/10/19 05:03:48;;;;;;;12.55;10.93;;;14.30;99.90;;;;;;4996953;28;20361;-62
2021/10/19 05:06:16;;;;;;;11.80;10.57;;;14.30;99.90;;;;;;4993568;28;20037;-62
2021/10/19 05:08:41;;;;;;;13.45;11.27;;;14.30;99.90;;;;;;5002413;28;20496;-62
2021/10/19 05:11:08;;;;;;;12.38;11.10;;;14.30;99.90;;;;;;4994578;28;20030;-62
2021/10/19 05:13:33;;;;;;;11.90;10.65;;;14.30;99.90;;;;;;4996897;28;20636;-62
2021/10/19 05:15:59;;;;;;;11.77;10.65;;;14.30;99.90;;;;;;4999081;28;20027;-62
2021/10/19 05:18:24;;;;;;;12.65;10.65;;;14.30;99.90;;;;;;4980074;28;20097;-62
2021/10/19 05:20:50;;;;;;;13.13;10.88;;;14.30;99.90;;;;;;4984128;28;20021;-62
2021/10/19 05:23:15;;;;;;;12.93;11.60;;;14.30;99.90;;;;;;5000545;28;20037;-62
2021/10/19 05:25:41;;;;;;;13.05;11.68;;;14.30;99.90;;;;;;4997051;28;20389;-62
2021/10/19 05:28:07;;;;;;;12.40;11.10;;;14.30;99.90;;;;;;4996245;28;20065;-62
2021/10/19 05:30:32;;;;;;;12.98;11.18;;;14.30;99.90;;;;;;4997200;28;20022;-62
2021/10/19 05:32:58;;;;;;;14.20;11.45;;;14.30;99.90;;;;;;4995919;28;20033;-62
2021/10/19 05:35:24;;;;;;;13.55;12.10;;;14.30;99.90;;;;;;4998507;28;20121;-62
2021/10/19 05:37:49;;;;;;;12.93;11.10;;;14.30;99.90;;;;;;4991087;28;20018;-62
2021/10/19 05:40:15;;;;;;;12.32;11.10;;;14.30;99.90;;;;;;4997552;28;20026;-62
2021/10/19 05:42:40;;;;;;;13.38;11.73;;;14.30;99.90;;;;;;4996334;28;20025;-62
2021/10/19 05:45:06;;;;;;;12.65;11.45;;;14.30;99.90;;;;;;4994018;28;20030;-62
2021/10/19 05:47:33;;;;;;;12.50;10.95;;;14.30;99.90;;;;;;4994293;28;20510;-62
2021/10/19 05:50:00;;;;;;;12.93;11.07;;;14.30;99.90;;;;;;4996050;28;20034;-62
2021/10/19 05:52:26;;;;;;;12.27;11.02;;;14.30;99.90;;;;;;4997238;28;20022;-62
2021/10/19 05:54:51;;;;;;;13.07;11.70;;;14.40;99.90;;;;;;4994251;28;20029;-62
2021/10/19 05:57:17;;;;;;;13.18;11.88;;;14.40;99.90;;;;;;4999683;28;20022;-62
2021/10/19 05:59:42;;;;;;;12.20;10.93;;;14.40;99.90;;;;;;5012648;28;20029;-62
2021/10/19 06:02:08;;;;;;;12.82;11.32;;;14.40;99.90;;;;;;5012845;28;20046;-62
2021/10/19 06:11:36;;;;;;;12.05;10.85;;;14.40;99.90;;;;;;4963522;28;20042;-62
2021/10/19 06:14:05;;;;;;;13.93;12.20;;;14.40;99.90;;;;;;5010509;28;20014;-62
2021/10/19 06:16:31;;;;;;;13.27;12.07;;;14.40;99.90;;;;;;5012690;28;20127;-62
2021/10/19 06:18:56;;;;;;;13.40;12.10;;;14.40;99.90;;;;;;5008039;28;20610;-62
2021/10/19 06:21:22;;;;;;;14.27;12.93;;;14.40;99.90;;;;;;5003619;28;20030;-62
2021/10/19 06:23:47;;;;;;;14.80;13.32;;;14.40;99.90;;;;;;5011493;28;20105;-62
2021/10/19 06:26:13;;;;;;;14.23;12.80;;;14.40;99.90;;;;;;5005922;28;20053;-62
2021/10/19 06:28:38;;;;;;;14.40;13.00;;;14.50;99.90;;;;;;5007814;28;20021;-62
2021/10/19 06:31:04;;;;;;;15.10;13.70;;;14.50;99.90;;;;;;5011108;28;20076;-62
2021/10/19 06:33:56;;;;;;;;;;;;;;;;;;;;;
2021/10/19 06:39:37;;;;;;;15.32;13.73;;;14.50;99.90;;;;;;4973250;28;20116;-62
2021/10/19 06:42:02;;;;;;;16.95;15.30;;;14.50;99.90;;;;;;5010192;28;20109;-62
2021/10/19 06:44:28;;;;;;;16.38;14.52;;;14.60;99.90;;;;;;5010926;28;20482;-62
2021/10/19 06:46:53;;;;;;;17.02;15.43;;;14.60;99.90;;;;;;4993284;28;20018;-62
2021/10/19 06:49:19;;;;;;;14.73;13.32;;;14.60;99.90;;;;;;5006871;28;20105;-62
2021/10/19 06:51:45;;;;;;;15.95;14.45;;;14.60;99.90;;;;;;5008195;28;20401;-62
2021/10/19 06:54:10;;;;;;;15.25;13.85;;;14.60;99.90;;;;;;5005381;28;20466;-62
2021/10/19 06:56:36;;;;;;;15.05;13.65;;;14.70;99.90;;;;;;5005576;28;20034;-62
2021/10/19 06:59:01;;;;;;;15.65;14.02;;;14.60;99.90;;;;;;4990531;28;20360;-62
2021/10/19 07:01:56;;;;;;;17.25;15.60;;;14.70;99.90;;;;;;5007781;28;20058;-62
2021/10/19 07:04:21;;;;;;;16.40;14.80;;;14.70;99.90;;;;;;5012029;28;20025;-62
2021/10/19 07:06:47;;;;;;;15.98;14.48;;;14.70;99.90;;;;;;5014525;28;20022;-62
2021/10/19 07:09:17;;;;;;;15.15;13.75;;;14.70;99.90;;;;;;5014377;28;20437;-62
2021/10/19 07:11:43;;;;;;;15.73;14.13;;;14.70;99.90;;;;;;5009035;28;20024;-62
2021/10/19 07:14:08;;;;;;;15.27;13.88;;;14.70;99.90;;;;;;5010389;28;20010;-62
2021/10/19 07:16:34;;;;;;;15.48;13.98;;;14.80;99.90;;;;;;5007681;28;20454;-62
2021/10/19 07:18:59;;;;;;;16.05;14.55;;;14.80;99.90;;;;;;5013943;28;20080;-62
2021/10/19 07:21:25;;;;;;;17.55;15.85;;;14.80;99.90;;;;;;4991449;28;20034;-62
2021/10/19 07:23:50;;;;;;;17.23;15.65;;;14.80;99.90;;;;;;5013622;28;20058;-62
2021/10/19 07:26:16;;;;;;;17.30;15.63;;;14.80;99.90;;;;;;5011192;28;20079;-62
2021/10/19 07:28:41;;;;;;;17.02;15.43;;;14.90;99.90;;;;;;5006080;28;20021;-63
2021/10/19 07:31:07;;;;;;;17.02;15.48;;;14.90;99.90;;;;;;5015731;28;20478;-62
2021/10/19 07:33:32;;;;;;;16.63;15.13;;;14.90;99.90;;;;;;4991704;28;20034;-62
2021/10/19 07:35:57;;;;;;;15.20;13.77;;;14.90;99.90;;;;;;4989310;28;20045;-62
2021/10/19 07:38:23;;;;;;;16.95;15.18;;;15.00;99.90;;;;;;4995669;28;20076;-62
2021/10/19 07:40:49;;;;;;;17.27;15.55;;;15.00;99.90;;;;;;5004123;28;20026;-62
2021/10/19 07:43:47;;;;;;;;;;;;;;;;;;;;;
2021/10/19 07:50:29;;;;;;;17.35;15.65;;;15.10;99.90;;;;;;4858592;29;20760;-62
2021/10/19 07:52:55;;;;;;;15.55;14.05;;;15.10;99.90;;;;;;4870520;29;20054;-62
2021/10/19 07:55:22;;;;;;;15.27;13.85;;;15.10;99.90;;;;;;4994036;28;20072;-62
2021/10/19 07:57:51;;;;;;;15.18;13.65;;;15.20;99.90;;;;;;5006143;28;20025;-62
2021/10/19 08:00:25;;;;;;;16.15;14.65;;;15.30;99.90;;;;;;5003878;28;20077;-62
2021/10/19 08:03:12;;;;;;;;;;;;;;;;;;;;;
2021/10/19 08:13:11;;;;;;;15.68;14.25;;;15.40;99.90;;;;;;4799852;29;20141;-62
2021/10/19 08:15:38;;;;;;;14.93;13.52;;;15.40;99.90;;;;;;4826334;29;20037;-62
2021/10/19 08:18:04;;;;;;;15.02;13.45;;;15.40;99.90;;;;;;4873257;29;20025;-62
2021/10/19 08:20:30;;;;;;;13.23;12.02;;;15.50;99.90;;;;;;4954151;28;20056;-62
2021/10/19 08:23:12;;;;;;;;;;;;;;;;;;;;;
2021/10/19 08:28:31;;;;;;;12.77;11.63;;;15.60;99.90;;;;;;5009856;28;20057;-62
2021/10/19 08:30:57;;;;;;;11.90;10.77;;;15.60;99.90;;;;;;4995268;28;20033;-62
2021/10/19 08:33:23;;;;;;;12.52;11.25;;;15.70;99.90;;;;;;5012093;28;20088;-62
2021/10/19 08:35:48;;;;;;;11.88;10.68;;;15.70;99.90;;;;;;5011047;28;20022;-62
2021/10/19 08:38:46;;;;;;;11.50;10.40;;;15.70;99.90;;;;;;5010223;28;20379;-62
2021/10/19 08:41:12;;;;;;;11.98;10.75;;;15.80;99.90;;;;;;5012569;28;20029;-62
2021/10/19 08:43:38;;;;;;;11.77;10.63;;;15.80;99.90;;;;;;5009903;28;20033;-62
2021/10/19 08:46:07;;;;;;;12.25;11.15;;;15.90;99.90;;;;;;5012655;28;20021;-62
2021/10/19 08:48:33;;;;;;;11.38;10.38;;;15.90;99.90;;;;;;5012997;28;20026;-62
2021/10/19 08:50:59;;;;;;;10.40;9.50;;;15.90;99.90;;;;;;5014180;28;20029;-62
2021/10/19 08:53:25;;;;;;;10.93;9.90;;;15.90;99.90;;;;;;5013147;28;20034;-62
2021/10/19 08:55:51;;;;;;;10.07;9.18;;;15.90;99.90;;;;;;5013931;28;20528;-62
2021/10/19 08:58:17;;;;;;;9.70;8.77;;;16.00;99.90;;;;;;5013448;28;20022;-62
2021/10/19 09:00:43;;;;;;;8.75;8.05;;;16.00;99.90;;;;;;5013868;28;20030;-62
2021/10/19 09:03:09;;;;;;;9.23;8.43;;;16.00;99.90;;;;;;5014191;28;20034;-62
2021/10/19 09:05:34;;;;;;;8.32;7.63;;;16.10;99.90;;;;;;5013632;28;20037;-62
2021/10/19 09:08:03;;;;;;;8.85;8.15;;;16.10;99.90;;;;;;5013797;28;20063;-62
2021/10/19 09:10:37;;;;;;;7.35;6.75;;;16.10;99.90;;;;;;5011520;28;20470;-62
2021/10/19 09:13:06;;;;;;;7.90;7.20;;;16.20;99.90;;;;;;5012674;28;20034;-62
2021/10/19 09:15:34;;;;;;;8.00;7.18;;;16.20;99.90;;;;;;5013427;28;20116;-62
2021/10/19 09:18:10;;;;;;;7.65;6.93;;;16.20;99.90;;;;;;5013489;28;20537;-62
2021/10/19 09:20:46;;;;;;;6.50;5.93;;;16.20;99.90;;;;;;5013327;28;20026;-62
2021/10/19 09:23:15;;;;;;;7.40;6.68;;;16.20;99.90;;;;;;5012095;28;20022;-63
2021/10/19 09:28:39;;;;;;;5.80;5.30;;;16.20;99.90;;;;;;5012868;28;20381;-62
2021/10/19 09:31:06;;;;;;;6.03;5.53;;;16.30;99.90;;;;;;5013574;28;20030;-63
2021/10/19 09:33:31;;;;;;;5.00;4.60;;;16.30;99.90;;;;;;5012852;28;20061;-63
2021/10/19 09:36:00;;;;;;;4.80;4.40;;;16.30;99.90;;;;;;5013378;28;20061;-63
2021/10/19 09:38:27;;;;;;;4.10;3.80;;;16.30;99.90;;;;;;5013248;28;20022;-62
2021/10/19 09:41:34;;;;;;;5.25;4.85;;;16.40;99.90;;;;;;5013066;28;20384;-63
2021/10/19 09:51:41;;;;;;;3.70;3.40;;;16.40;99.90;;;;;;4861855;29;20399;-62
2021/10/19 10:20:07;;;;;;;6.70;6.03;;;16.70;99.90;;;;;;4663539;30;20048;-62
2021/10/19 10:22:32;;;;;;;6.90;6.13;;;16.70;99.90;;;;;;4834912;29;20135;-62
2021/10/19 10:25:46;;;;;;;;;;;;;;;;;;;;;
2021/10/19 10:29:10;;;;;;;6.60;5.80;;;16.80;99.90;;;;;;4991868;28;20025;-62
2021/10/19 10:31:52;;;;;;;6.32;5.72;;;16.90;99.90;;;;;;4932405;29;20030;-63
2021/10/19 10:34:29;;;;;;;6.88;6.18;;;16.90;99.90;;;;;;4932741;29;20080;-62
2021/10/19 10:37:05;;;;;;;7.45;6.55;;;17.00;99.90;;;;;;4954815;28;20060;-62
2021/10/19 10:39:34;;;;;;;8.38;7.55;;;17.00;99.90;;;;;;4996816;28;20026;-63
2021/10/19 10:42:06;;;;;;;;;;;17.00;99.90;;;;;;4983447;28;20022;-63
2021/10/19 10:44:39;;;;;;;7.85;6.95;;;17.00;99.90;;;;;;4996896;28;20276;-63
2021/10/19 10:47:05;;;;;;;7.38;6.60;;;17.10;99.90;;;;;;4992977;28;20030;-62
2021/10/19 10:53:21;;;;;;;9.07;7.80;;;17.20;99.90;;;;;;4986803;28;20038;-63
2021/10/19 10:55:49;;;;;;;7.53;6.78;;;17.30;99.90;;;;;;4988502;28;20026;-63
2021/10/19 10:58:29;;;;;;;8.93;8.02;;;17.30;99.90;;;;;;4986844;28;20383;-62
2021/10/19 11:00:59;;;;;;;9.43;7.57;;;17.40;99.90;;;;;;4989525;28;20027;-62
2021/10/19 11:03:25;;;;;;;8.40;7.00;;;17.40;99.90;;;;;;4968787;28;20041;-62
2021/10/19 11:05:58;;;;;;;9.15;7.95;;;17.40;99.90;;;;;;4988190;28;20047;-62
2021/10/19 11:08:32;;;;;;;8.95;8.05;;;17.50;99.90;;;;;;4990738;28;20018;-62
2021/10/19 11:11:03;;;;;;;9.57;8.57;;;17.50;99.90;;;;;;4988700;28;20034;-62
2021/10/19 11:13:44;;;;;;;9.13;7.97;;;17.60;99.90;;;;;;4985375;28;20089;-62
2021/10/19 11:16:10;;;;;;;10.13;8.48;;;17.60;99.90;;;;;;4994025;28;20022;-63
2021/10/19 11:21:24;;;;;;;8.90;8.00;;;17.60;99.90;;;;;;4952687;29;20128;-62
2021/10/19 11:23:50;;;;;;;10.38;8.32;;;17.60;99.90;;;;;;4986493;28;20226;-62
2021/10/19 11:26:16;;;;;;;9.63;8.20;;;17.70;99.90;;;;;;4991497;28;20069;-62
2021/10/19 11:28:55;;;;;;;9.15;7.82;;;17.70;99.90;;;;;;4974517;28;20557;-62
2021/10/19 11:31:22;;;;;;;9.73;8.73;;;17.70;99.90;;;;;;4992389;28;20030;-62
2021/10/19 11:33:47;;;;;;;10.98;9.85;;;17.70;99.90;;;;;;4994145;28;20026;-62
2021/10/19 11:36:14;;;;;;;11.38;10.18;;;17.70;99.90;;;;;;4988057;28;20021;-62
2021/10/19 11:38:42;;;;;;;11.40;9.32;;;17.70;99.90;;;;;;4986833;28;20105;-62
2021/10/19 11:41:10;;;;;;;11.57;10.40;;;17.80;99.90;;;;;;4992769;28;20497;-62
2021/10/19 11:43:41;;;;;;;12.50;11.20;;;17.80;99.90;;;;;;4976356;28;20031;-62
2021/10/19 11:46:12;;;;;;;11.98;9.65;;;17.80;99.90;;;;;;4990500;28;20453;-62
2021/10/19 11:49:17;;;;;;;;;;;;;;;;;;;;;
2021/10/19 11:51:50;;;;;;;10.85;9.70;;;17.80;99.90;;;;;;4991446;28;20040;-62
2021/10/19 11:54:17;;;;;;;11.38;10.15;;;17.80;99.90;;;;;;4992756;28;20119;-62
2021/10/19 11:56:57;;;;;;;12.27;10.88;;;17.80;99.90;;;;;;4973268;28;20030;-62
2021/10/19 11:59:23;;;;;;;14.00;11.05;;;17.80;99.90;;;;;;4992619;28;20015;-62
2021/10/19 12:01:53;;;;;;;16.58;9.75;;;17.70;99.90;;;;;;4992412;28;20033;-62
2021/10/19 12:04:26;;;;;;;11.82;10.25;;;17.70;99.90;;;;;;4993389;28;20034;-62
2021/10/19 12:06:52;;;;;;;11.68;10.32;;;17.70;99.90;;;;;;4974493;28;20039;-62
2021/10/19 12:09:27;;;;;;;10.55;9.45;;;17.70;99.90;;;;;;4972500;28;20082;-62
2021/10/19 12:11:59;;;;;;;12.30;9.23;;;17.70;99.90;;;;;;4971165;28;20031;-63
2021/10/19 12:17:57;;;;;;;10.20;8.95;;;17.70;99.90;;;;;;4941026;28;20093;-62
2021/10/19 12:20:55;;;;;;;10.05;9.05;;;17.70;99.90;;;;;;4973748;28;20576;-62
2021/10/19 12:30:21;;;;;;;10.25;9.20;;;17.70;99.90;;;;;;4953792;28;20045;-62
2021/10/19 12:32:47;;;;;;;10.95;9.85;;;17.70;99.90;;;;;;4974132;28;20035;-62
2021/10/19 12:35:13;;;;;;;9.95;8.95;;;17.70;99.90;;;;;;4974797;28;20062;-62
2021/10/19 12:37:42;;;;;;;10.85;9.48;;;17.80;99.90;;;;;;4974956;28;20487;-62
2021/10/19 12:40:34;;;;;;;9.30;8.40;;;17.80;99.90;;;;;;4971882;28;20027;-62
2021/10/19 12:42:59;;;;;;;10.85;9.20;;;17.80;99.90;;;;;;4973711;28;20043;-62
2021/10/19 12:45:24;;;;;;;10.10;9.00;;;17.80;99.90;;;;;;4974895;28;20506;-62
2021/10/19 12:55:06;;;;;;;11.10;9.20;;;17.90;99.90;;;;;;4871742;29;20072;-62
2021/10/19 12:57:31;;;;;;;10.40;9.30;;;17.90;99.90;;;;;;4848785;29;20113;-62
2021/10/19 12:59:57;;;;;;;10.82;9.70;;;17.90;99.90;;;;;;4933065;28;20130;-62
2021/10/19 13:02:25;;;;;;;10.90;9.80;;;17.90;99.90;;;;;;4974867;28;20094;-62
2021/10/19 13:05:19;;;;;;;11.93;10.60;;;18.00;99.90;;;;;;4974884;28;20518;-62
2021/10/19 13:07:45;;;;;;;11.45;10.23;;;18.00;99.90;;;;;;4975237;28;20109;-62
2021/10/19 13:10:11;;;;;;;15.13;12.43;;;18.00;99.90;;;;;;4994363;28;20209;-62
2021/10/19 13:13:11;;;;;;;13.82;12.40;;;18.00;99.90;;;;;;4980311;28;20442;-62
2021/10/19 13:15:37;;;;;;;;;;;18.10;99.90;;;;;;4965682;28;20053;-62
2021/10/19 13:18:04;;;;;;;15.65;13.43;;;18.00;99.90;;;;;;4992814;28;20294;-62
2021/10/19 13:20:29;;;;;;;16.50;14.73;;;18.10;99.90;;;;;;4988409;28;20046;-62
2021/10/19 13:22:55;;;;;;;17.30;15.50;;;18.10;99.90;;;;;;4987863;28;20073;-62
2021/10/19 13:25:20;;;;;;;14.93;13.32;;;18.10;99.90;;;;;;4992224;28;20363;-62
2021/10/19 13:27:46;;;;;;;15.05;13.52;;;18.20;99.90;;;;;;4993076;28;20034;-62
2021/10/19 13:30:12;;;;;;;16.20;14.07;;;18.20;99.90;;;;;;4990881;28;20030;-63
2021/10/19 13:32:48;;;;;;;16.45;14.80;;;18.20;99.90;;;;;;4993623;28;20034;-62
2021/10/19 13:38:53;;;;;;;;;;;18.30;99.90;;;;;;4961747;28;20110;-62
2021/10/19 13:41:38;;;;;;;18.35;16.38;;;18.20;99.90;;;;;;4993476;28;20005;-62
2021/10/19 13:50:54;;;;;;;17.13;15.23;;;18.40;99.90;;;;;;4816492;29;20087;-62
2021/10/19 13:53:20;;;;;;;18.73;16.83;;;18.40;99.90;;;;;;4888045;28;20032;-62
2021/10/19 13:55:45;;;;;;;17.63;15.73;;;18.30;99.90;;;;;;4993261;28;20447;-63
2021/10/19 13:58:30;;;;;;;;;;;;;;;;;;;;;
2021/10/19 14:01:03;;;;;;;18.67;16.67;;;18.40;99.90;;;;;;4980698;28;20029;-62
2021/10/19 14:03:28;;;;;;;19.17;16.02;;;18.50;99.90;;;;;;4992854;28;20027;-62
2021/10/19 14:06:44;;;;;;;;;;;;;;;;;;;;;
2021/10/19 14:09:09;;;;;;;17.77;14.80;;;18.50;99.90;;;;;;4983221;28;20038;-62
2021/10/19 14:11:35;;;;;;;18.50;14.93;;;18.50;99.90;;;;;;4993156;28;20105;-62
2021/10/19 14:18:15;;;;;;;17.65;14.65;;;18.50;99.90;;;;;;4992351;28;20053;-63
2021/10/19 14:20:41;;;;;;;15.88;14.20;;;18.60;99.90;;;;;;4937742;28;20171;-62
2021/10/19 14:23:06;;;;;;;16.02;14.07;;;18.50;99.90;;;;;;4992810;28;20106;-63
2021/10/19 14:26:02;;;;;;;14.85;12.73;;;18.60;99.90;;;;;;4975436;28;20037;-62
2021/10/19 14:28:28;;;;;;;13.82;12.10;;;18.60;99.90;;;;;;4974144;28;20053;-63
2021/10/19 14:31:12;;;;;;;15.60;13.82;;;18.70;99.90;;;;;;4967648;28;20495;-63